Nanticoke — VCQL — position and weather

sailwx.info

Track history (hours):
 
Tides and Currents Weather Stations Pressure Air Temp Water Temp Dewpoint Dewpoint Depression Visibility Wind Speed Wind Dir Waves Ship Positions

Nanticoke

Last reported at 2015-May-27 22:22 UTC. Time now 2015-May-28 16:11 UTC.
Position N 42°26' W 080°18'.

Length 222 m; draft 8.1 m.

Type: Cargo ship. MMSI: 316043000.

Date/timePositionNaut miles runAvg speedWind from/ knotsBaromVisibWave heightAir tempDewpointWater temp
2015-May-27 22:22N 42°26' W 080°18'1012.2
2015-May-27 21:33N 42°29' W 080°05'1712.2
2015-May-27 20:12N 42°38' W 079°46'163 6.9
2015-May-26 20:30N 43°60' W 076°32'8 8.2
2015-May-26 19:33N 44°06' W 076°25'112 7.3
2015-May-26 04:12N 45°12' W 074°18'12 3.0
2015-May-26 00:08N 45°14' W 074°01'5 8.7
2015-May-25 23:33N 45°18' W 073°56'2 1.5
2015-May-25 22:33N 45°19' W 073°55'2 1.7
2015-May-25 21:33N 45°20' W 073°54'9 8.9
2015-May-25 20:33N 45°25' W 073°42'5 5.0
2015-May-25 19:33N 45°24' W 073°35'1 1.2
2015-May-25 18:26N 45°24' W 073°33'3 3.2
2015-May-25 17:22N 45°27' W 073°30'45 6.6
2015-May-25 10:33N 46°06' W 072°58'9 9.3
2015-May-25 09:33N 46°13' W 072°49'10 9.9
2015-May-25 08:33N 46°17' W 072°36'8 8.4
2015-May-25 07:33N 46°23' W 072°27'9 9.0
2015-May-25 06:31N 46°28' W 072°15'  
Track history (hours):
 
Tides and Currents Weather Stations Pressure Air Temp Water Temp Dewpoint Dewpoint Depression Visibility Wind Speed Wind Dir Waves Ship Positions

Nanticoke

Last reported at 2015-May-27 22:22 UTC. Time now 2015-May-28 16:11 UTC.
Position N 42°26' W 080°18'.

Length 222 m; draft 8.1 m.

Type: Cargo ship. MMSI: 316043000.

Date/timePositionNaut miles runAvg speedWind from/ knotsBaromVisibWave heightAir tempDewpointWater temp
2015-May-27 22:22N 42°26' W 080°18'1012.2
2015-May-27 21:33N 42°29' W 080°05'1712.2
2015-May-27 20:12N 42°38' W 079°46'163 6.9
2015-May-26 20:30N 43°60' W 076°32'8 8.2
2015-May-26 19:33N 44°06' W 076°25'112 7.3
2015-May-26 04:12N 45°12' W 074°18'12 3.0
2015-May-26 00:08N 45°14' W 074°01'5 8.7
2015-May-25 23:33N 45°18' W 073°56'2 1.5
2015-May-25 22:33N 45°19' W 073°55'2 1.7
2015-May-25 21:33N 45°20' W 073°54'9 8.9
2015-May-25 20:33N 45°25' W 073°42'5 5.0
2015-May-25 19:33N 45°24' W 073°35'1 1.2
2015-May-25 18:26N 45°24' W 073°33'3 3.2
2015-May-25 17:22N 45°27' W 073°30'45 6.6
2015-May-25 10:33N 46°06' W 072°58'9 9.3
2015-May-25 09:33N 46°13' W 072°49'10 9.9
2015-May-25 08:33N 46°17' W 072°36'8 8.4
2015-May-25 07:33N 46°23' W 072°27'9 9.0
2015-May-25 06:31N 46°28' W 072°15'  

Dump ship's entire track history